Pagrindinis puslapis
METAR-TAF:

METAR-TAF

Oro uostai :

Naftos platforma

Goeree Le, Nyderlandai

platuma: 51-55-33N, ilguma: 3-40-12E, Aukštis: 19 m

Dabartinis oras

Ataskaita buvo paskelbta 34 minutes, ne 06:25 UTC
Vėjas 14 kt iš Pietryčių
Temperatūra 21°C
Drėgmė 73%
Slėgis 1010 hPa
Matomumas 10 km arba daugiau

METAR: EHSC 200625Z AUTO 13014KT 9999 ///////// 21/16 Q1010 W18/H3

Laikas: 08:59 (06:59 UTC)


TAF: trūkstamas

Orai ataskaitas ir orų prognozės (METAR, TAF).

turimą stotys yra geltonos ir raudonos taškus žemėlapyje.

Perkelti pele per norėdami pamatyti stoties vardą.

Tada spustelėkite, norėdami matyti oro stebėjimo ir prognozės.

Norėdami pakeisti žemėlapį: spustelėkite ant žalios mygtukų su juodo kryžiaus žemyn,; žalią mygtuką su brūkšneliu, jei norite nutolinti; arba žalių rodyklių gretimoms žemėlapius.


METAR-TAF: